sensor_id;sensor_type;location;lat;lon;timestamp;P1;durP1;ratioP1;P2;durP2;ratioP2
21243;SDS011;10780;50.942;4.028;2023-07-31T00:00:07;12.98;;;5.38;;
21243;SDS011;10780;50.942;4.028;2023-07-31T00:02:36;10.40;;;4.55;;
21243;SDS011;10780;50.942;4.028;2023-07-31T00:05:02;15.88;;;4.97;;
21243;SDS011;10780;50.942;4.028;2023-07-31T00:07:27;12.65;;;5.28;;
21243;SDS011;10780;50.942;4.028;2023-07-31T00:09:53;14.80;;;5.40;;
21243;SDS011;10780;50.942;4.028;2023-07-31T00:12:22;15.48;;;5.57;;
21243;SDS011;10780;50.942;4.028;2023-07-31T00:14:48;17.25;;;5.25;;
21243;SDS011;10780;50.942;4.028;2023-07-31T00:17:14;14.38;;;5.40;;
21243;SDS011;10780;50.942;4.028;2023-07-31T00:19:40;15.07;;;5.18;;
21243;SDS011;10780;50.942;4.028;2023-07-31T00:22:05;18.33;;;5.95;;
21243;SDS011;10780;50.942;4.028;2023-07-31T00:24:31;16.13;;;5.22;;
21243;SDS011;10780;50.942;4.028;2023-07-31T00:26:56;12.73;;;5.15;;
21243;SDS011;10780;50.942;4.028;2023-07-31T00:29:22;12.57;;;5.10;;
21243;SDS011;10780;50.942;4.028;2023-07-31T00:31:48;13.32;;;5.78;;
21243;SDS011;10780;50.942;4.028;2023-07-31T00:34:13;15.88;;;5.38;;
21243;SDS011;10780;50.942;4.028;2023-07-31T00:36:39;16.70;;;5.55;;
21243;SDS011;10780;50.942;4.028;2023-07-31T00:39:04;13.02;;;4.93;;
21243;SDS011;10780;50.942;4.028;2023-07-31T00:41:30;14.60;;;5.18;;
21243;SDS011;10780;50.942;4.028;2023-07-31T00:43:56;11.27;;;5.00;;
21243;SDS011;10780;50.942;4.028;2023-07-31T00:46:21;19.02;;;6.90;;
21243;SDS011;10780;50.942;4.028;2023-07-31T00:48:47;15.45;;;6.18;;
21243;SDS011;10780;50.942;4.028;2023-07-31T00:51:14;18.73;;;5.65;;
21243;SDS011;10780;50.942;4.028;2023-07-31T00:53:40;13.93;;;5.32;;
21243;SDS011;10780;50.942;4.028;2023-07-31T00:56:06;15.57;;;5.38;;
21243;SDS011;10780;50.942;4.028;2023-07-31T00:58:32;15.32;;;5.57;;
21243;SDS011;10780;50.942;4.028;2023-07-31T01:00:58;14.65;;;4.97;;
21243;SDS011;10780;50.942;4.028;2023-07-31T01:03:23;13.20;;;5.55;;
21243;SDS011;10780;50.942;4.028;2023-07-31T01:05:56;19.27;;;4.78;;
21243;SDS011;10780;50.942;4.028;2023-07-31T01:11:25;13.07;;;5.63;;
21243;SDS011;10780;50.942;4.028;2023-07-31T01:13:54;12.43;;;5.88;;
21243;SDS011;10780;50.942;4.028;2023-07-31T01:16:20;15.73;;;4.82;;
21243;SDS011;10780;50.942;4.028;2023-07-31T01:18:46;13.05;;;5.00;;
21243;SDS011;10780;50.942;4.028;2023-07-31T01:26:31;12.00;;;5.00;;
21243;SDS011;10780;50.942;4.028;2023-07-31T01:29:10;14.15;;;5.20;;
21243;SDS011;10780;50.942;4.028;2023-07-31T01:31:37;16.13;;;4.88;;
21243;SDS011;10780;50.942;4.028;2023-07-31T01:34:06;13.25;;;5.70;;
21243;SDS011;10780;50.942;4.028;2023-07-31T01:36:33;13.85;;;6.15;;
21243;SDS011;10780;50.942;4.028;2023-07-31T01:38:59;14.82;;;5.18;;
21243;SDS011;10780;50.942;4.028;2023-07-31T01:41:26;14.15;;;5.68;;
21243;SDS011;10780;50.942;4.028;2023-07-31T01:43:52;11.80;;;5.10;;
21243;SDS011;10780;50.942;4.028;2023-07-31T01:46:18;12.00;;;5.03;;
21243;SDS011;10780;50.942;4.028;2023-07-31T01:48:43;16.10;;;5.20;;
21243;SDS011;10780;50.942;4.028;2023-07-31T01:51:09;15.05;;;5.57;;
21243;SDS011;10780;50.942;4.028;2023-07-31T01:53:34;13.88;;;4.95;;
21243;SDS011;10780;50.942;4.028;2023-07-31T01:56:00;15.73;;;6.22;;
21243;SDS011;10780;50.942;4.028;2023-07-31T01:58:26;15.13;;;5.55;;
21243;SDS011;10780;50.942;4.028;2023-07-31T02:00:51;13.00;;;4.85;;
21243;SDS011;10780;50.942;4.028;2023-07-31T02:03:17;11.35;;;4.68;;
21243;SDS011;10780;50.942;4.028;2023-07-31T02:05:49;14.77;;;4.97;;
21243;SDS011;10780;50.942;4.028;2023-07-31T02:08:15;11.50;;;4.82;;
21243;SDS011;10780;50.942;4.028;2023-07-31T02:10:41;9.90;;;4.60;;
21243;SDS011;10780;50.942;4.028;2023-07-31T02:13:07;14.65;;;4.97;;
21243;SDS011;10780;50.942;4.028;2023-07-31T02:15:33;12.23;;;4.65;;
21243;SDS011;10780;50.942;4.028;2023-07-31T02:17:59;18.17;;;4.95;;
21243;SDS011;10780;50.942;4.028;2023-07-31T02:20:24;16.30;;;4.97;;
21243;SDS011;10780;50.942;4.028;2023-07-31T02:22:50;15.50;;;5.65;;
21243;SDS011;10780;50.942;4.028;2023-07-31T02:25:16;13.00;;;5.93;;
21243;SDS011;10780;50.942;4.028;2023-07-31T02:27:42;17.45;;;6.50;;
21243;SDS011;10780;50.942;4.028;2023-07-31T02:30:08;16.25;;;5.18;;
21243;SDS011;10780;50.942;4.028;2023-07-31T02:32:34;12.93;;;4.78;;
21243;SDS011;10780;50.942;4.028;2023-07-31T02:34:59;12.13;;;5.03;;
21243;SDS011;10780;50.942;4.028;2023-07-31T02:37:25;16.20;;;5.55;;
21243;SDS011;10780;50.942;4.028;2023-07-31T02:39:51;15.60;;;5.13;;
21243;SDS011;10780;50.942;4.028;2023-07-31T02:42:17;11.25;;;5.35;;
21243;SDS011;10780;50.942;4.028;2023-07-31T02:44:42;10.55;;;5.15;;
21243;SDS011;10780;50.942;4.028;2023-07-31T02:47:08;18.05;;;5.95;;
21243;SDS011;10780;50.942;4.028;2023-07-31T02:49:34;12.93;;;6.03;;
21243;SDS011;10780;50.942;4.028;2023-07-31T02:51:59;17.13;;;5.75;;
21243;SDS011;10780;50.942;4.028;2023-07-31T02:54:25;14.98;;;6.53;;
21243;SDS011;10780;50.942;4.028;2023-07-31T02:56:51;10.95;;;6.25;;
21243;SDS011;10780;50.942;4.028;2023-07-31T02:59:16;10.65;;;5.05;;
21243;SDS011;10780;50.942;4.028;2023-07-31T03:01:43;19.38;;;6.03;;
21243;SDS011;10780;50.942;4.028;2023-07-31T03:04:08;14.63;;;5.72;;
21243;SDS011;10780;50.942;4.028;2023-07-31T03:06:34;16.15;;;6.35;;
21243;SDS011;10780;50.942;4.028;2023-07-31T03:08:59;15.05;;;6.35;;
21243;SDS011;10780;50.942;4.028;2023-07-31T03:11:25;12.15;;;6.05;;
21243;SDS011;10780;50.942;4.028;2023-07-31T03:13:50;11.48;;;5.50;;
21243;SDS011;10780;50.942;4.028;2023-07-31T03:16:16;11.93;;;6.25;;
21243;SDS011;10780;50.942;4.028;2023-07-31T03:18:42;15.25;;;5.68;;
21243;SDS011;10780;50.942;4.028;2023-07-31T03:21:07;9.02;;;4.75;;
21243;SDS011;10780;50.942;4.028;2023-07-31T03:23:33;10.10;;;5.78;;
21243;SDS011;10780;50.942;4.028;2023-07-31T03:25:59;12.07;;;5.00;;
21243;SDS011;10780;50.942;4.028;2023-07-31T03:28:26;11.25;;;5.68;;
21243;SDS011;10780;50.942;4.028;2023-07-31T03:30:52;8.95;;;4.88;;
21243;SDS011;10780;50.942;4.028;2023-07-31T03:33:18;11.10;;;5.70;;
21243;SDS011;10780;50.942;4.028;2023-07-31T03:35:44;11.48;;;5.40;;
21243;SDS011;10780;50.942;4.028;2023-07-31T03:38:10;9.57;;;5.05;;
21243;SDS011;10780;50.942;4.028;2023-07-31T03:40:35;9.80;;;5.18;;
21243;SDS011;10780;50.942;4.028;2023-07-31T03:43:01;12.45;;;5.30;;
21243;SDS011;10780;50.942;4.028;2023-07-31T03:45:26;10.05;;;5.68;;
21243;SDS011;10780;50.942;4.028;2023-07-31T03:47:52;9.32;;;4.88;;
21243;SDS011;10780;50.942;4.028;2023-07-31T03:50:19;7.80;;;5.07;;
21243;SDS011;10780;50.942;4.028;2023-07-31T03:52:45;12.13;;;5.55;;
21243;SDS011;10780;50.942;4.028;2023-07-31T03:55:11;8.00;;;5.18;;
21243;SDS011;10780;50.942;4.028;2023-07-31T03:57:36;11.02;;;5.18;;
21243;SDS011;10780;50.942;4.028;2023-07-31T04:00:02;9.90;;;5.07;;
21243;SDS011;10780;50.942;4.028;2023-07-31T04:02:28;9.82;;;5.55;;
21243;SDS011;10780;50.942;4.028;2023-07-31T04:04:54;7.97;;;5.50;;
21243;SDS011;10780;50.942;4.028;2023-07-31T04:07:19;11.27;;;5.30;;
21243;SDS011;10780;50.942;4.028;2023-07-31T04:09:45;8.55;;;5.57;;
21243;SDS011;10780;50.942;4.028;2023-07-31T04:12:11;6.75;;;5.82;;
21243;SDS011;10780;50.942;4.028;2023-07-31T04:14:36;10.80;;;5.43;;
21243;SDS011;10780;50.942;4.028;2023-07-31T04:17:02;8.60;;;5.53;;
21243;SDS011;10780;50.942;4.028;2023-07-31T04:19:28;8.85;;;5.28;;
21243;SDS011;10780;50.942;4.028;2023-07-31T04:21:53;11.25;;;5.25;;
21243;SDS011;10780;50.942;4.028;2023-07-31T04:24:19;11.68;;;5.78;;
21243;SDS011;10780;50.942;4.028;2023-07-31T04:26:49;10.25;;;5.70;;
21243;SDS011;10780;50.942;4.028;2023-07-31T04:29:16;8.25;;;5.25;;
21243;SDS011;10780;50.942;4.028;2023-07-31T04:31:41;7.63;;;4.97;;
21243;SDS011;10780;50.942;4.028;2023-07-31T04:34:07;10.48;;;5.05;;
21243;SDS011;10780;50.942;4.028;2023-07-31T04:36:33;8.38;;;5.28;;
21243;SDS011;10780;50.942;4.028;2023-07-31T04:38:59;10.88;;;5.88;;
21243;SDS011;10780;50.942;4.028;2023-07-31T04:41:25;8.95;;;5.45;;
21243;SDS011;10780;50.942;4.028;2023-07-31T04:43:50;10.85;;;5.90;;
21243;SDS011;10780;50.942;4.028;2023-07-31T04:46:16;10.38;;;5.50;;
21243;SDS011;10780;50.942;4.028;2023-07-31T04:48:42;10.52;;;4.90;;
21243;SDS011;10780;50.942;4.028;2023-07-31T04:51:08;9.60;;;5.55;;
21243;SDS011;10780;50.942;4.028;2023-07-31T04:53:36;7.95;;;5.07;;
21243;SDS011;10780;50.942;4.028;2023-07-31T04:56:02;9.70;;;5.57;;
21243;SDS011;10780;50.942;4.028;2023-07-31T04:58:28;10.30;;;5.13;;
21243;SDS011;10780;50.942;4.028;2023-07-31T05:00:53;8.85;;;5.32;;
21243;SDS011;10780;50.942;4.028;2023-07-31T05:03:19;8.55;;;5.30;;
21243;SDS011;10780;50.942;4.028;2023-07-31T05:05:45;7.43;;;4.82;;
21243;SDS011;10780;50.942;4.028;2023-07-31T05:08:10;9.93;;;5.43;;
21243;SDS011;10780;50.942;4.028;2023-07-31T05:10:36;8.93;;;5.50;;
21243;SDS011;10780;50.942;4.028;2023-07-31T05:13:02;9.13;;;6.90;;
21243;SDS011;10780;50.942;4.028;2023-07-31T05:15:28;10.50;;;5.90;;
21243;SDS011;10780;50.942;4.028;2023-07-31T05:17:53;8.73;;;5.63;;
21243;SDS011;10780;50.942;4.028;2023-07-31T05:20:20;12.85;;;6.53;;
21243;SDS011;10780;50.942;4.028;2023-07-31T05:22:46;9.40;;;5.90;;
21243;SDS011;10780;50.942;4.028;2023-07-31T05:25:12;9.85;;;5.72;;
21243;SDS011;10780;50.942;4.028;2023-07-31T05:27:37;9.25;;;5.95;;
21243;SDS011;10780;50.942;4.028;2023-07-31T05:30:03;12.25;;;5.90;;
21243;SDS011;10780;50.942;4.028;2023-07-31T05:32:30;10.95;;;6.45;;
21243;SDS011;10780;50.942;4.028;2023-07-31T05:34:55;8.13;;;6.25;;
21243;SDS011;10780;50.942;4.028;2023-07-31T05:37:21;10.52;;;5.88;;
21243;SDS011;10780;50.942;4.028;2023-07-31T05:39:47;10.30;;;5.25;;
21243;SDS011;10780;50.942;4.028;2023-07-31T05:42:12;7.35;;;5.32;;
21243;SDS011;10780;50.942;4.028;2023-07-31T05:44:38;9.88;;;5.63;;
21243;SDS011;10780;50.942;4.028;2023-07-31T05:47:04;10.82;;;5.40;;
21243;SDS011;10780;50.942;4.028;2023-07-31T05:49:30;11.73;;;6.00;;
21243;SDS011;10780;50.942;4.028;2023-07-31T05:51:55;10.38;;;4.97;;
21243;SDS011;10780;50.942;4.028;2023-07-31T05:54:21;7.40;;;4.78;;
21243;SDS011;10780;50.942;4.028;2023-07-31T05:56:47;9.50;;;5.60;;
21243;SDS011;10780;50.942;4.028;2023-07-31T05:59:12;9.63;;;4.55;;
21243;SDS011;10780;50.942;4.028;2023-07-31T06:01:38;7.32;;;4.47;;
21243;SDS011;10780;50.942;4.028;2023-07-31T06:04:04;7.78;;;4.22;;
21243;SDS011;10780;50.942;4.028;2023-07-31T06:06:30;7.55;;;4.38;;
21243;SDS011;10780;50.942;4.028;2023-07-31T06:08:56;8.52;;;4.75;;
21243;SDS011;10780;50.942;4.028;2023-07-31T06:11:21;9.38;;;4.55;;
21243;SDS011;10780;50.942;4.028;2023-07-31T06:13:47;9.10;;;4.63;;
21243;SDS011;10780;50.942;4.028;2023-07-31T06:16:14;7.82;;;4.47;;
21243;SDS011;10780;50.942;4.028;2023-07-31T06:18:40;8.15;;;4.40;;
21243;SDS011;10780;50.942;4.028;2023-07-31T06:21:06;7.85;;;4.60;;
21243;SDS011;10780;50.942;4.028;2023-07-31T06:23:32;6.60;;;3.83;;
21243;SDS011;10780;50.942;4.028;2023-07-31T06:25:57;8.27;;;3.80;;
21243;SDS011;10780;50.942;4.028;2023-07-31T06:28:27;9.82;;;4.20;;
21243;SDS011;10780;50.942;4.028;2023-07-31T06:30:54;8.13;;;4.15;;
21243;SDS011;10780;50.942;4.028;2023-07-31T06:33:20;6.57;;;4.40;;
21243;SDS011;10780;50.942;4.028;2023-07-31T06:35:45;7.80;;;4.50;;
21243;SDS011;10780;50.942;4.028;2023-07-31T06:38:11;10.32;;;4.97;;
21243;SDS011;10780;50.942;4.028;2023-07-31T06:40:36;9.48;;;4.65;;
21243;SDS011;10780;50.942;4.028;2023-07-31T06:43:02;9.27;;;4.25;;
21243;SDS011;10780;50.942;4.028;2023-07-31T06:45:35;10.95;;;4.50;;
21243;SDS011;10780;50.942;4.028;2023-07-31T06:48:02;7.45;;;4.28;;
21243;SDS011;10780;50.942;4.028;2023-07-31T06:50:29;8.20;;;3.65;;
21243;SDS011;10780;50.942;4.028;2023-07-31T06:52:56;8.77;;;4.53;;
21243;SDS011;10780;50.942;4.028;2023-07-31T06:55:22;6.47;;;3.78;;
21243;SDS011;10780;50.942;4.028;2023-07-31T06:57:48;6.38;;;3.88;;
21243;SDS011;10780;50.942;4.028;2023-07-31T07:00:15;7.15;;;4.13;;
21243;SDS011;10780;50.942;4.028;2023-07-31T07:02:41;8.20;;;4.03;;
21243;SDS011;10780;50.942;4.028;2023-07-31T07:05:07;7.05;;;4.22;;
21243;SDS011;10780;50.942;4.028;2023-07-31T07:07:33;6.20;;;3.92;;
21243;SDS011;10780;50.942;4.028;2023-07-31T07:09:58;7.93;;;4.28;;
21243;SDS011;10780;50.942;4.028;2023-07-31T07:12:24;9.40;;;3.97;;
21243;SDS011;10780;50.942;4.028;2023-07-31T07:14:50;7.15;;;4.03;;
21243;SDS011;10780;50.942;4.028;2023-07-31T07:17:18;9.95;;;4.00;;
21243;SDS011;10780;50.942;4.028;2023-07-31T07:19:44;9.43;;;4.13;;
21243;SDS011;10780;50.942;4.028;2023-07-31T07:22:10;6.43;;;3.72;;
21243;SDS011;10780;50.942;4.028;2023-07-31T07:24:36;8.80;;;4.40;;
21243;SDS011;10780;50.942;4.028;2023-07-31T07:27:02;8.05;;;3.85;;
21243;SDS011;10780;50.942;4.028;2023-07-31T07:29:28;11.52;;;4.22;;
21243;SDS011;10780;50.942;4.028;2023-07-31T07:31:54;7.97;;;4.85;;
21243;SDS011;10780;50.942;4.028;2023-07-31T07:34:19;6.07;;;4.03;;
21243;SDS011;10780;50.942;4.028;2023-07-31T07:36:47;9.32;;;4.35;;
21243;SDS011;10780;50.942;4.028;2023-07-31T07:39:13;7.07;;;3.83;;
21243;SDS011;10780;50.942;4.028;2023-07-31T07:41:39;10.90;;;4.20;;
21243;SDS011;10780;50.942;4.028;2023-07-31T07:44:05;9.27;;;4.90;;
21243;SDS011;10780;50.942;4.028;2023-07-31T07:46:30;7.30;;;4.03;;
21243;SDS011;10780;50.942;4.028;2023-07-31T07:48:56;6.75;;;3.83;;
21243;SDS011;10780;50.942;4.028;2023-07-31T07:51:21;8.45;;;3.88;;
21243;SDS011;10780;50.942;4.028;2023-07-31T07:53:47;4.38;;;3.38;;
21243;SDS011;10780;50.942;4.028;2023-07-31T07:56:13;6.65;;;3.58;;
21243;SDS011;10780;50.942;4.028;2023-07-31T07:58:38;10.52;;;4.00;;
21243;SDS011;10780;50.942;4.028;2023-07-31T08:01:04;8.27;;;3.92;;
21243;SDS011;10780;50.942;4.028;2023-07-31T08:03:29;9.15;;;3.97;;
21243;SDS011;10780;50.942;4.028;2023-07-31T08:05:58;9.82;;;3.92;;
21243;SDS011;10780;50.942;4.028;2023-07-31T08:08:25;6.43;;;3.85;;
21243;SDS011;10780;50.942;4.028;2023-07-31T08:10:51;7.72;;;3.90;;
21243;SDS011;10780;50.942;4.028;2023-07-31T08:13:16;8.40;;;3.88;;
21243;SDS011;10780;50.942;4.028;2023-07-31T08:15:42;7.85;;;4.15;;
21243;SDS011;10780;50.942;4.028;2023-07-31T08:18:08;5.80;;;3.42;;
21243;SDS011;10780;50.942;4.028;2023-07-31T08:20:34;7.03;;;3.60;;
21243;SDS011;10780;50.942;4.028;2023-07-31T08:23:00;4.65;;;3.17;;
21243;SDS011;10780;50.942;4.028;2023-07-31T08:25:26;5.72;;;3.28;;
21243;SDS011;10780;50.942;4.028;2023-07-31T08:27:51;9.40;;;3.75;;
21243;SDS011;10780;50.942;4.028;2023-07-31T08:30:18;6.43;;;3.17;;
21243;SDS011;10780;50.942;4.028;2023-07-31T08:32:44;4.72;;;3.08;;
21243;SDS011;10780;50.942;4.028;2023-07-31T08:35:09;9.55;;;3.30;;
21243;SDS011;10780;50.942;4.028;2023-07-31T08:37:35;9.38;;;3.85;;
21243;SDS011;10780;50.942;4.028;2023-07-31T08:40:03;6.50;;;3.40;;
21243;SDS011;10780;50.942;4.028;2023-07-31T08:42:29;7.68;;;3.63;;
21243;SDS011;10780;50.942;4.028;2023-07-31T08:44:55;7.82;;;3.55;;
21243;SDS011;10780;50.942;4.028;2023-07-31T08:47:21;5.60;;;3.45;;
21243;SDS011;10780;50.942;4.028;2023-07-31T08:49:48;5.95;;;3.80;;
21243;SDS011;10780;50.942;4.028;2023-07-31T08:52:16;7.05;;;3.90;;
21243;SDS011;10780;50.942;4.028;2023-07-31T08:54:41;7.43;;;4.18;;
21243;SDS011;10780;50.942;4.028;2023-07-31T08:57:07;4.85;;;3.78;;
21243;SDS011;10780;50.942;4.028;2023-07-31T08:59:34;8.77;;;4.40;;
21243;SDS011;10780;50.942;4.028;2023-07-31T09:02:03;6.40;;;3.40;;
21243;SDS011;10780;50.942;4.028;2023-07-31T09:04:32;4.03;;;3.40;;
21243;SDS011;10780;50.942;4.028;2023-07-31T09:07:02;7.55;;;4.07;;
21243;SDS011;10780;50.942;4.028;2023-07-31T09:09:29;4.45;;;3.60;;
21243;SDS011;10780;50.942;4.028;2023-07-31T09:11:57;6.68;;;4.20;;
21243;SDS011;10780;50.942;4.028;2023-07-31T09:14:24;7.15;;;3.72;;
21243;SDS011;10780;50.942;4.028;2023-07-31T09:16:51;7.32;;;4.00;;
21243;SDS011;10780;50.942;4.028;2023-07-31T09:19:34;8.27;;;4.05;;
21243;SDS011;10780;50.942;4.028;2023-07-31T09:22:04;8.27;;;4.38;;
21243;SDS011;10780;50.942;4.028;2023-07-31T09:24:31;8.82;;;4.50;;
21243;SDS011;10780;50.942;4.028;2023-07-31T09:26:58;10.25;;;4.53;;
21243;SDS011;10780;50.942;4.028;2023-07-31T09:29:25;8.82;;;4.45;;
21243;SDS011;10780;50.942;4.028;2023-07-31T09:31:52;7.90;;;4.65;;
21243;SDS011;10780;50.942;4.028;2023-07-31T09:34:19;8.85;;;4.30;;
21243;SDS011;10780;50.942;4.028;2023-07-31T09:36:46;5.63;;;3.97;;
21243;SDS011;10780;50.942;4.028;2023-07-31T09:39:14;5.13;;;3.78;;
21243;SDS011;10780;50.942;4.028;2023-07-31T09:41:44;8.48;;;4.07;;
21243;SDS011;10780;50.942;4.028;2023-07-31T09:44:13;7.88;;;3.88;;
21243;SDS011;10780;50.942;4.028;2023-07-31T09:46:38;7.28;;;4.57;;
21243;SDS011;10780;50.942;4.028;2023-07-31T09:49:11;9.27;;;4.68;;
21243;SDS011;10780;50.942;4.028;2023-07-31T09:51:38;5.78;;;4.35;;
21243;SDS011;10780;50.942;4.028;2023-07-31T09:54:25;6.45;;;4.10;;
21243;SDS011;10780;50.942;4.028;2023-07-31T09:56:50;6.43;;;4.15;;
21243;SDS011;10780;50.942;4.028;2023-07-31T09:59:16;7.47;;;4.22;;
21243;SDS011;10780;50.942;4.028;2023-07-31T10:01:44;7.60;;;4.80;;
21243;SDS011;10780;50.942;4.028;2023-07-31T10:04:13;7.75;;;4.50;;
21243;SDS011;10780;50.942;4.028;2023-07-31T10:06:41;8.98;;;4.45;;
21243;SDS011;10780;50.942;4.028;2023-07-31T10:09:09;8.38;;;4.75;;
21243;SDS011;10780;50.942;4.028;2023-07-31T10:11:45;7.90;;;4.50;;
21243;SDS011;10780;50.942;4.028;2023-07-31T10:14:17;8.02;;;4.63;;
21243;SDS011;10780;50.942;4.028;2023-07-31T10:16:45;9.93;;;5.03;;
21243;SDS011;10780;50.942;4.028;2023-07-31T10:19:11;8.85;;;4.60;;
21243;SDS011;10780;50.942;4.028;2023-07-31T10:21:37;6.78;;;4.70;;
21243;SDS011;10780;50.942;4.028;2023-07-31T10:24:03;8.88;;;5.18;;
21243;SDS011;10780;50.942;4.028;2023-07-31T10:26:31;8.48;;;4.78;;
21243;SDS011;10780;50.942;4.028;2023-07-31T10:29:00;8.93;;;5.57;;
21243;SDS011;10780;50.942;4.028;2023-07-31T10:31:26;9.25;;;5.35;;
21243;SDS011;10780;50.942;4.028;2023-07-31T10:33:53;12.10;;;5.60;;
21243;SDS011;10780;50.942;4.028;2023-07-31T10:36:20;9.20;;;5.22;;
21243;SDS011;10780;50.942;4.028;2023-07-31T10:38:49;8.90;;;4.97;;
21243;SDS011;10780;50.942;4.028;2023-07-31T10:41:15;7.97;;;4.80;;
21243;SDS011;10780;50.942;4.028;2023-07-31T10:43:41;8.20;;;4.63;;
21243;SDS011;10780;50.942;4.028;2023-07-31T10:46:08;7.55;;;4.97;;
21243;SDS011;10780;50.942;4.028;2023-07-31T10:48:36;9.55;;;4.65;;
21243;SDS011;10780;50.942;4.028;2023-07-31T10:51:06;9.55;;;4.55;;
21243;SDS011;10780;50.942;4.028;2023-07-31T10:53:34;10.15;;;5.00;;
21243;SDS011;10780;50.942;4.028;2023-07-31T10:56:01;7.32;;;4.60;;
21243;SDS011;10780;50.942;4.028;2023-07-31T10:58:29;7.05;;;4.95;;
21243;SDS011;10780;50.942;4.028;2023-07-31T11:00:57;9.15;;;4.88;;
21243;SDS011;10780;50.942;4.028;2023-07-31T11:03:40;8.02;;;4.90;;
21243;SDS011;10780;50.942;4.028;2023-07-31T11:06:09;10.55;;;5.13;;
21243;SDS011;10780;50.942;4.028;2023-07-31T11:08:35;10.40;;;5.50;;
21243;SDS011;10780;50.942;4.028;2023-07-31T11:11:11;8.65;;;5.10;;
21243;SDS011;10780;50.942;4.028;2023-07-31T11:16:20;7.45;;;4.97;;
21243;SDS011;10780;50.942;4.028;2023-07-31T11:18:47;7.78;;;5.13;;
21243;SDS011;10780;50.942;4.028;2023-07-31T11:23:47;9.73;;;5.15;;
21243;SDS011;10780;50.942;4.028;2023-07-31T11:26:14;9.95;;;5.30;;
21243;SDS011;10780;50.942;4.028;2023-07-31T11:28:40;7.93;;;4.95;;
21243;SDS011;10780;50.942;4.028;2023-07-31T11:31:08;9.68;;;5.57;;
21243;SDS011;10780;50.942;4.028;2023-07-31T11:33:35;10.20;;;5.32;;
21243;SDS011;10780;50.942;4.028;2023-07-31T11:36:01;12.13;;;5.40;;
21243;SDS011;10780;50.942;4.028;2023-07-31T11:38:28;12.23;;;4.97;;
21243;SDS011;10780;50.942;4.028;2023-07-31T11:40:59;10.90;;;5.65;;
21243;SDS011;10780;50.942;4.028;2023-07-31T11:43:29;12.77;;;5.60;;
21243;SDS011;10780;50.942;4.028;2023-07-31T11:45:57;9.23;;;5.32;;
21243;SDS011;10780;50.942;4.028;2023-07-31T11:48:24;10.98;;;5.13;;
21243;SDS011;10780;50.942;4.028;2023-07-31T11:50:57;9.52;;;5.63;;
21243;SDS011;10780;50.942;4.028;2023-07-31T11:53:28;8.20;;;4.88;;
21243;SDS011;10780;50.942;4.028;2023-07-31T11:56:05;9.57;;;5.45;;
21243;SDS011;10780;50.942;4.028;2023-07-31T11:58:33;6.25;;;4.63;;
21243;SDS011;10780;50.942;4.028;2023-07-31T12:01:00;7.05;;;4.43;;
21243;SDS011;10780;50.942;4.028;2023-07-31T12:03:26;8.35;;;5.20;;
21243;SDS011;10780;50.942;4.028;2023-07-31T12:05:55;9.00;;;4.53;;
21243;SDS011;10780;50.942;4.028;2023-07-31T12:08:21;6.95;;;4.85;;
21243;SDS011;10780;50.942;4.028;2023-07-31T12:10:49;11.30;;;5.43;;
21243;SDS011;10780;50.942;4.028;2023-07-31T12:13:22;11.65;;;5.28;;
21243;SDS011;10780;50.942;4.028;2023-07-31T12:15:54;11.43;;;5.20;;
21243;SDS011;10780;50.942;4.028;2023-07-31T12:18:22;10.10;;;5.55;;
21243;SDS011;10780;50.942;4.028;2023-07-31T12:20:53;9.68;;;5.47;;
21243;SDS011;10780;50.942;4.028;2023-07-31T12:23:21;9.13;;;4.63;;
21243;SDS011;10780;50.942;4.028;2023-07-31T12:26:11;7.47;;;4.60;;
21243;SDS011;10780;50.942;4.028;2023-07-31T12:28:40;9.75;;;5.32;;
21243;SDS011;10780;50.942;4.028;2023-07-31T12:31:14;8.40;;;4.80;;
21243;SDS011;10780;50.942;4.028;2023-07-31T12:33:45;9.23;;;5.45;;
21243;SDS011;10780;50.942;4.028;2023-07-31T12:36:15;8.40;;;4.75;;
21243;SDS011;10780;50.942;4.028;2023-07-31T12:38:45;10.55;;;5.78;;
21243;SDS011;10780;50.942;4.028;2023-07-31T12:41:11;6.72;;;4.60;;
21243;SDS011;10780;50.942;4.028;2023-07-31T12:43:38;9.15;;;5.68;;
21243;SDS011;10780;50.942;4.028;2023-07-31T12:46:05;9.73;;;5.38;;
21243;SDS011;10780;50.942;4.028;2023-07-31T12:48:35;9.27;;;4.72;;
21243;SDS011;10780;50.942;4.028;2023-07-31T12:51:02;7.93;;;5.13;;
21243;SDS011;10780;50.942;4.028;2023-07-31T12:53:28;12.13;;;5.53;;
21243;SDS011;10780;50.942;4.028;2023-07-31T12:55:55;9.10;;;5.57;;
21243;SDS011;10780;50.942;4.028;2023-07-31T12:58:20;9.23;;;5.78;;
21243;SDS011;10780;50.942;4.028;2023-07-31T13:00:46;9.02;;;5.70;;
21243;SDS011;10780;50.942;4.028;2023-07-31T13:03:12;7.65;;;4.63;;
21243;SDS011;10780;50.942;4.028;2023-07-31T13:05:37;10.00;;;4.80;;
21243;SDS011;10780;50.942;4.028;2023-07-31T13:08:03;6.07;;;3.85;;
21243;SDS011;10780;50.942;4.028;2023-07-31T13:10:29;6.68;;;3.58;;
21243;SDS011;10780;50.942;4.028;2023-07-31T13:12:55;5.47;;;3.05;;
21243;SDS011;10780;50.942;4.028;2023-07-31T13:15:21;6.03;;;3.20;;
21243;SDS011;10780;50.942;4.028;2023-07-31T13:17:46;3.95;;;2.97;;
21243;SDS011;10780;50.942;4.028;2023-07-31T13:20:12;5.50;;;3.08;;
21243;SDS011;10780;50.942;4.028;2023-07-31T13:22:38;4.35;;;3.70;;
21243;SDS011;10780;50.942;4.028;2023-07-31T13:25:03;4.10;;;3.08;;
21243;SDS011;10780;50.942;4.028;2023-07-31T13:27:30;4.55;;;2.72;;
21243;SDS011;10780;50.942;4.028;2023-07-31T13:29:56;4.60;;;3.15;;
21243;SDS011;10780;50.942;4.028;2023-07-31T13:32:21;5.80;;;3.20;;
21243;SDS011;10780;50.942;4.028;2023-07-31T13:34:47;5.00;;;3.00;;
21243;SDS011;10780;50.942;4.028;2023-07-31T13:37:13;3.22;;;2.53;;
21243;SDS011;10780;50.942;4.028;2023-07-31T13:39:39;3.40;;;2.47;;
21243;SDS011;10780;50.942;4.028;2023-07-31T13:42:06;4.13;;;2.88;;
21243;SDS011;10780;50.942;4.028;2023-07-31T13:44:36;2.92;;;2.50;;
21243;SDS011;10780;50.942;4.028;2023-07-31T13:47:05;3.60;;;2.65;;
21243;SDS011;10780;50.942;4.028;2023-07-31T13:49:32;4.13;;;2.28;;
21243;SDS011;10780;50.942;4.028;2023-07-31T13:51:58;3.63;;;2.50;;
21243;SDS011;10780;50.942;4.028;2023-07-31T13:54:24;3.88;;;2.75;;
21243;SDS011;10780;50.942;4.028;2023-07-31T13:56:50;3.75;;;3.20;;
21243;SDS011;10780;50.942;4.028;2023-07-31T13:59:17;5.85;;;3.30;;
21243;SDS011;10780;50.942;4.028;2023-07-31T14:01:43;6.70;;;3.70;;
21243;SDS011;10780;50.942;4.028;2023-07-31T14:04:09;6.78;;;3.40;;
21243;SDS011;10780;50.942;4.028;2023-07-31T14:06:34;5.60;;;3.75;;
21243;SDS011;10780;50.942;4.028;2023-07-31T14:09:00;6.78;;;3.83;;
21243;SDS011;10780;50.942;4.028;2023-07-31T14:11:26;6.97;;;3.95;;
21243;SDS011;10780;50.942;4.028;2023-07-31T14:13:52;6.82;;;4.47;;
21243;SDS011;10780;50.942;4.028;2023-07-31T14:16:17;6.57;;;3.88;;
21243;SDS011;10780;50.942;4.028;2023-07-31T14:18:43;7.22;;;4.00;;
21243;SDS011;10780;50.942;4.028;2023-07-31T14:21:10;8.43;;;3.97;;
21243;SDS011;10780;50.942;4.028;2023-07-31T14:23:36;7.70;;;4.18;;
21243;SDS011;10780;50.942;4.028;2023-07-31T14:26:02;5.43;;;3.83;;
21243;SDS011;10780;50.942;4.028;2023-07-31T14:28:27;6.22;;;3.30;;
21243;SDS011;10780;50.942;4.028;2023-07-31T14:30:53;7.45;;;3.38;;
21243;SDS011;10780;50.942;4.028;2023-07-31T14:33:19;6.18;;;3.33;;
21243;SDS011;10780;50.942;4.028;2023-07-31T14:35:44;4.40;;;3.00;;
21243;SDS011;10780;50.942;4.028;2023-07-31T14:38:10;5.05;;;3.17;;
21243;SDS011;10780;50.942;4.028;2023-07-31T14:40:35;5.78;;;2.90;;
21243;SDS011;10780;50.942;4.028;2023-07-31T14:43:03;6.28;;;3.13;;
21243;SDS011;10780;50.942;4.028;2023-07-31T14:45:29;6.30;;;3.20;;
21243;SDS011;10780;50.942;4.028;2023-07-31T14:47:54;5.05;;;2.80;;
21243;SDS011;10780;50.942;4.028;2023-07-31T14:50:20;4.45;;;3.00;;
21243;SDS011;10780;50.942;4.028;2023-07-31T14:52:47;5.60;;;2.75;;